createdAt,value
2022-09-25T00:03:32.762Z,67.60
2022-09-25T00:07:14.648Z,68.50
2022-09-25T00:10:56.764Z,68.10
2022-09-25T00:14:38.572Z,68.40
2022-09-25T00:18:39.919Z,68.60
2022-09-25T00:22:24.709Z,68.90
2022-09-25T00:26:08.278Z,69.00
2022-09-25T00:29:50.077Z,69.10
2022-09-25T00:33:33.272Z,69.10
2022-09-25T00:37:15.148Z,69.20
2022-09-25T00:40:57.047Z,69.10
2022-09-25T00:44:46.479Z,69.10
2022-09-25T00:48:30.332Z,69.20
2022-09-25T00:52:13.786Z,69.40
2022-09-25T00:55:56.569Z,69.40
2022-09-25T00:59:41.806Z,69.60
2022-09-25T01:03:24.296Z,69.80
2022-09-25T01:07:07.108Z,70.00
2022-09-25T01:10:49.060Z,70.10
2022-09-25T01:14:34.152Z,70.20
2022-09-25T01:18:34.500Z,70.40
2022-09-25T01:22:30.384Z,70.40
2022-09-25T01:26:49.889Z,70.50
2022-09-25T01:30:38.292Z,70.00
2022-09-25T01:34:40.507Z,70.70
2022-09-25T01:38:35.740Z,70.30
2022-09-25T01:42:27.146Z,70.50
2022-09-25T01:46:33.306Z,71.10
2022-09-25T01:50:22.806Z,70.80
2022-09-25T01:54:11.090Z,72.00
2022-09-25T01:58:30.544Z,72.40
2022-09-25T02:02:15.857Z,71.50
2022-09-25T02:06:02.486Z,73.10
2022-09-25T02:09:50.167Z,73.50
2022-09-25T02:13:50.368Z,73.60
2022-09-25T02:18:08.829Z,73.30
2022-09-25T02:22:04.775Z,74.10
2022-09-25T02:25:56.626Z,73.90
2022-09-25T02:29:38.836Z,74.20
2022-09-25T02:33:20.705Z,74.30
2022-09-25T02:37:02.530Z,74.50
2022-09-25T02:40:53.079Z,74.70
2022-09-25T02:44:53.772Z,74.60
2022-09-25T02:48:50.552Z,73.90
2022-09-25T02:52:40.667Z,74.20
2022-09-25T02:56:29.034Z,74.40
2022-09-25T03:00:12.929Z,74.40
2022-09-25T03:03:58.079Z,74.70
2022-09-25T03:08:19.049Z,74.70
2022-09-25T03:12:03.443Z,74.70
2022-09-25T03:15:50.814Z,74.50
2022-09-25T03:19:34.795Z,74.50
2022-09-25T03:23:16.821Z,74.70
2022-09-25T03:26:58.626Z,75.10
2022-09-25T03:30:41.002Z,75.30
2022-09-25T03:34:23.131Z,75.40
2022-09-25T03:38:05.075Z,75.40
2022-09-25T03:41:47.867Z,75.30
2022-09-25T03:45:29.874Z,75.20
2022-09-25T03:49:12.809Z,75.00
2022-09-25T03:52:54.653Z,74.70
2022-09-25T03:56:36.710Z,74.30
2022-09-25T04:00:18.555Z,75.00
2022-09-25T04:04:03.225Z,74.50
2022-09-25T04:07:45.165Z,74.70
2022-09-25T04:11:26.959Z,74.80
2022-09-25T04:15:10.075Z,74.90
2022-09-25T04:18:51.892Z,74.90
2022-09-25T04:22:33.654Z,75.00
2022-09-25T04:26:15.448Z,75.10
2022-09-25T04:29:57.416Z,75.10
2022-09-25T04:33:48.361Z,75.00
2022-09-25T04:37:30.336Z,74.70
2022-09-25T04:41:12.281Z,74.60
2022-09-25T04:44:56.117Z,74.50
2022-09-25T04:48:38.172Z,74.40
2022-09-25T04:52:20.720Z,74.80
2022-09-25T04:56:04.371Z,75.00
2022-09-25T04:59:46.417Z,75.20
2022-09-25T05:03:30.022Z,75.50
2022-09-25T05:07:12.131Z,75.50
2022-09-25T05:10:54.174Z,75.40
2022-09-25T05:14:36.016Z,75.20
2022-09-25T05:18:21.332Z,75.10
2022-09-25T05:22:03.568Z,75.20
2022-09-25T05:25:52.022Z,75.30
2022-09-25T05:29:34.559Z,75.10
2022-09-25T05:33:16.447Z,75.00
2022-09-25T05:36:58.220Z,74.90
2022-09-25T05:40:40.149Z,74.70
2022-09-25T05:44:21.991Z,74.70
2022-09-25T05:48:06.322Z,74.80
2022-09-25T05:51:48.487Z,75.00
2022-09-25T05:55:31.024Z,75.10
2022-09-25T05:59:13.059Z,75.00
2022-09-25T06:02:54.842Z,75.00
2022-09-25T06:06:36.661Z,75.00
2022-09-25T06:10:18.462Z,75.10
2022-09-25T06:14:00.222Z,75.10
2022-09-25T06:17:42.008Z,75.20
2022-09-25T06:21:24.436Z,75.30
2022-09-25T06:25:07.141Z,75.50
2022-09-25T06:28:48.959Z,75.50
2022-09-25T06:32:30.737Z,75.60
2022-09-25T06:36:12.501Z,75.60
2022-09-25T06:39:54.299Z,75.80
2022-09-25T06:43:36.092Z,75.80
2022-09-25T06:47:19.678Z,75.90
2022-09-25T06:51:03.588Z,75.90
2022-09-25T06:54:45.476Z,75.80
2022-09-25T06:58:27.948Z,76.10
2022-09-25T07:02:28.758Z,76.40
2022-09-25T07:06:12.937Z,76.50
2022-09-25T07:09:54.775Z,76.80
2022-09-25T07:13:36.898Z,76.90
2022-09-25T07:17:18.688Z,77.50
2022-09-25T07:21:15.104Z,77.90
2022-09-25T07:24:56.893Z,77.90
2022-09-25T07:28:40.095Z,78.20
2022-09-25T07:32:21.979Z,78.40
2022-09-25T07:36:03.887Z,78.50
2022-09-25T07:39:45.732Z,78.80
2022-09-25T07:43:27.528Z,79.50
2022-09-25T07:47:09.331Z,79.60
2022-09-25T07:50:51.185Z,80.00
2022-09-25T07:54:34.685Z,80.20
2022-09-25T07:58:19.601Z,80.40
2022-09-25T08:02:03.052Z,80.50
2022-09-25T08:05:44.891Z,80.80
2022-09-25T08:09:26.803Z,81.40
2022-09-25T08:13:08.665Z,81.80
2022-09-25T08:16:50.473Z,81.80
2022-09-25T08:20:32.247Z,82.30
2022-09-25T08:24:14.109Z,82.80
2022-09-25T08:27:55.914Z,82.70
2022-09-25T08:31:37.825Z,82.30
2022-09-25T08:35:19.724Z,82.70
2022-09-25T08:39:01.653Z,83.30
2022-09-25T08:42:45.961Z,83.20
2022-09-25T08:47:05.648Z,83.80
2022-09-25T08:50:48.002Z,82.90
2022-09-25T08:54:32.041Z,81.80
2022-09-25T08:58:40.263Z,80.80
2022-09-25T09:02:26.394Z,79.90
2022-09-25T09:06:14.943Z,78.60
2022-09-25T09:10:09.287Z,77.10
2022-09-25T09:14:11.028Z,75.70
2022-09-25T09:17:54.792Z,74.00
2022-09-25T09:22:00.763Z,73.40
2022-09-25T09:26:14.243Z,73.30
2022-09-25T09:30:18.472Z,72.80
2022-09-25T09:35:00.878Z,72.30
2022-09-25T09:38:50.862Z,71.20
2022-09-25T09:42:48.145Z,70.50
2022-09-25T09:46:52.392Z,68.20
2022-09-25T09:50:52.871Z,64.40
2022-09-25T09:54:50.691Z,61.40
2022-09-25T09:58:58.332Z,58.80
2022-09-25T10:02:48.939Z,57.50
2022-09-25T10:06:37.480Z,50.90
2022-09-25T10:10:20.098Z,47.50
2022-09-25T10:14:04.449Z,46.70
2022-09-25T10:17:47.013Z,44.80
2022-09-25T10:21:54.245Z,43.00
2022-09-25T10:25:38.754Z,46.20
2022-09-25T10:29:23.208Z,41.00
2022-09-25T10:33:14.415Z,38.00
2022-09-25T10:36:56.216Z,39.10
2022-09-25T10:40:39.413Z,37.60
2022-09-25T10:44:41.487Z,36.70
2022-09-25T10:48:56.125Z,41.40
2022-09-25T10:52:53.105Z,39.60
2022-09-25T10:56:38.985Z,39.90
2022-09-25T11:00:24.815Z,35.30
2022-09-25T11:04:20.256Z,34.90
2022-09-25T11:08:05.553Z,37.30
2022-09-25T11:11:49.423Z,32.30
2022-09-25T11:15:31.235Z,44.30
2022-09-25T11:19:28.867Z,31.80
2022-09-25T11:23:41.218Z,32.50
2022-09-25T11:27:36.971Z,36.70
2022-09-25T11:31:25.560Z,34.20
2022-09-25T11:35:48.839Z,30.40
2022-09-25T11:40:05.350Z,36.60
2022-09-25T11:43:58.417Z,29.20
2022-09-25T11:47:56.160Z,30.60
2022-09-25T11:51:56.923Z,29.40
2022-09-25T11:56:07.256Z,32.30
2022-09-25T12:00:07.883Z,32.50
2022-09-25T12:04:07.875Z,28.00
2022-09-25T12:08:11.160Z,29.90
2022-09-25T12:12:11.334Z,29.40
2022-09-25T12:16:14.944Z,33.40
2022-09-25T12:20:02.795Z,33.60
2022-09-25T12:24:04.884Z,30.90
2022-09-25T12:27:58.910Z,31.20
2022-09-25T12:31:53.529Z,31.80
2022-09-25T12:36:00.552Z,34.00
2022-09-25T12:39:46.961Z,34.10
2022-09-25T12:43:54.340Z,33.70
2022-09-25T12:47:47.623Z,35.50
2022-09-25T12:51:40.521Z,34.70
2022-09-25T12:55:50.454Z,32.60
2022-09-25T12:59:46.609Z,32.10
2022-09-25T13:03:53.419Z,33.00
2022-09-25T13:07:54.424Z,34.90
2022-09-25T13:11:46.155Z,31.80
2022-09-25T13:15:33.940Z,31.90
2022-09-25T13:19:42.218Z,32.60
2022-09-25T13:23:32.940Z,35.50
2022-09-25T13:27:19.033Z,34.50
2022-09-25T13:31:08.684Z,34.50
2022-09-25T13:35:01.867Z,38.50
2022-09-25T13:39:04.438Z,36.10
2022-09-25T13:42:47.749Z,35.50
2022-09-25T13:46:33.680Z,36.10
2022-09-25T13:50:24.809Z,36.80
2022-09-25T13:54:09.633Z,37.90
2022-09-25T13:58:00.146Z,38.80
2022-09-25T14:01:42.319Z,38.50
2022-09-25T14:05:27.195Z,39.00
2022-09-25T14:09:23.912Z,39.30
2022-09-25T14:13:07.636Z,39.50
2022-09-25T14:16:52.074Z,39.30
2022-09-25T14:20:40.133Z,40.00
2022-09-25T14:24:31.678Z,41.40
2022-09-25T14:28:25.944Z,41.90
2022-09-25T14:33:01.234Z,42.20
2022-09-25T14:37:08.498Z,42.10
2022-09-25T14:41:06.380Z,42.10
2022-09-25T14:45:02.436Z,42.50
2022-09-25T14:48:57.414Z,43.60
2022-09-25T14:52:40.030Z,44.70
2022-09-25T14:56:22.708Z,46.10
2022-09-25T15:00:08.183Z,46.20
2022-09-25T15:03:50.345Z,45.60
2022-09-25T15:07:33.312Z,45.60
2022-09-25T15:11:17.947Z,46.10
2022-09-25T15:15:13.240Z,46.20
2022-09-25T15:18:59.141Z,46.30
2022-09-25T15:22:44.008Z,46.60
2022-09-25T15:26:28.231Z,46.50
2022-09-25T15:30:19.528Z,46.80
2022-09-25T15:34:12.495Z,45.30
2022-09-25T15:38:07.717Z,45.70
2022-09-25T15:41:49.874Z,46.00
2022-09-25T15:45:37.068Z,46.70
2022-09-25T15:49:40.494Z,47.50
2022-09-25T15:53:27.804Z,47.90
2022-09-25T15:57:13.240Z,48.20
2022-09-25T16:01:19.420Z,49.00
2022-09-25T16:05:01.650Z,49.30
2022-09-25T16:08:44.104Z,47.40
2022-09-25T16:12:26.119Z,49.70
2022-09-25T16:16:17.814Z,49.70
2022-09-25T16:20:01.135Z,49.50
2022-09-25T16:23:43.865Z,49.70
2022-09-25T16:27:33.140Z,49.20
2022-09-25T16:31:20.406Z,49.90
2022-09-25T16:35:03.538Z,49.20
2022-09-25T16:39:10.338Z,48.50
2022-09-25T16:42:55.047Z,49.00
2022-09-25T16:46:36.855Z,49.80
2022-09-25T16:50:23.187Z,49.20
2022-09-25T16:54:11.133Z,49.90
2022-09-25T16:57:53.779Z,50.70
2022-09-25T17:01:35.748Z,51.30
2022-09-25T17:05:18.825Z,51.80
2022-09-25T17:09:00.659Z,52.40
2022-09-25T17:12:47.626Z,52.60
2022-09-25T17:16:31.749Z,52.80
2022-09-25T17:20:13.665Z,52.40
2022-09-25T17:23:55.440Z,52.20
2022-09-25T17:27:37.219Z,51.80
2022-09-25T17:31:21.226Z,52.50
2022-09-25T17:35:03.471Z,52.20
2022-09-25T17:38:45.408Z,52.80
2022-09-25T17:42:27.766Z,52.90
2022-09-25T17:46:10.391Z,53.10
2022-09-25T17:49:52.228Z,53.00
2022-09-25T17:53:34.087Z,53.50
2022-09-25T17:57:15.897Z,53.50
2022-09-25T18:00:59.698Z,53.60
2022-09-25T18:04:41.476Z,54.20
2022-09-25T18:08:23.345Z,54.50
2022-09-25T18:12:05.177Z,54.70
2022-09-25T18:15:54.262Z,54.40
2022-09-25T18:19:54.645Z,54.60
2022-09-25T18:23:38.591Z,54.90
2022-09-25T18:27:21.042Z,54.90
2022-09-25T18:31:03.455Z,54.90
2022-09-25T18:34:45.510Z,55.50
2022-09-25T18:38:27.315Z,55.70
2022-09-25T18:42:09.129Z,56.20
2022-09-25T18:45:51.174Z,55.80
2022-09-25T18:49:33.119Z,55.90
2022-09-25T18:53:16.451Z,56.40
2022-09-25T18:56:58.747Z,56.50
2022-09-25T19:00:40.807Z,56.80
2022-09-25T19:04:22.770Z,56.90
2022-09-25T19:08:04.994Z,56.90
2022-09-25T19:11:46.766Z,57.10
2022-09-25T19:15:30.694Z,57.60
2022-09-25T19:19:12.717Z,57.80
2022-09-25T19:22:55.024Z,58.20
2022-09-25T19:26:37.416Z,58.40
2022-09-25T19:30:19.225Z,58.60
2022-09-25T19:34:02.825Z,58.70
2022-09-25T19:37:44.706Z,58.50
2022-09-25T19:41:33.367Z,58.70
2022-09-25T19:45:15.814Z,59.00
2022-09-25T19:48:58.144Z,59.00
2022-09-25T19:52:39.935Z,59.00
2022-09-25T19:56:21.901Z,59.00
2022-09-25T20:00:05.174Z,59.20
2022-09-25T20:03:46.976Z,59.10
2022-09-25T20:07:29.267Z,58.90
2022-09-25T20:11:19.820Z,59.00
2022-09-25T20:15:01.664Z,58.80
2022-09-25T20:18:47.129Z,59.10
2022-09-25T20:22:31.785Z,59.20
2022-09-25T20:26:19.005Z,59.50
2022-09-25T20:30:00.770Z,59.50
2022-09-25T20:33:43.000Z,59.70
2022-09-25T20:37:25.449Z,59.70
2022-09-25T20:41:11.173Z,59.70
2022-09-25T20:44:54.368Z,60.00
2022-09-25T20:48:39.229Z,60.20
2022-09-25T20:52:21.001Z,60.60
2022-09-25T20:56:09.586Z,60.60
2022-09-25T20:59:51.558Z,60.80
2022-09-25T21:03:34.370Z,61.00
2022-09-25T21:07:17.326Z,61.20
2022-09-25T21:11:01.790Z,61.40
2022-09-25T21:14:43.581Z,61.20
2022-09-25T21:18:26.451Z,61.40
2022-09-25T21:22:08.326Z,61.80
2022-09-25T21:25:50.112Z,61.80
2022-09-25T21:29:34.001Z,62.00
2022-09-25T21:33:15.787Z,61.90
2022-09-25T21:36:57.551Z,62.10
2022-09-25T21:40:39.405Z,62.10
2022-09-25T21:44:24.204Z,63.00
2022-09-25T21:48:06.712Z,62.40
2022-09-25T21:51:49.624Z,62.40
2022-09-25T21:55:31.824Z,62.70
2022-09-25T21:59:13.966Z,62.70
2022-09-25T22:02:55.901Z,63.10
2022-09-25T22:06:47.101Z,63.20
2022-09-25T22:10:28.973Z,63.60
2022-09-25T22:14:15.742Z,63.90
2022-09-25T22:17:58.208Z,64.00
2022-09-25T22:21:41.368Z,64.20
2022-09-25T22:25:24.411Z,64.80
2022-09-25T22:29:07.188Z,64.80
2022-09-25T22:32:48.945Z,64.80
2022-09-25T22:36:32.000Z,65.20
2022-09-25T22:40:13.953Z,65.50
2022-09-25T22:43:58.495Z,65.80
2022-09-25T22:47:42.365Z,65.60
2022-09-25T22:51:25.613Z,65.60
2022-09-25T22:55:09.942Z,65.80
2022-09-25T22:58:55.027Z,65.90
2022-09-25T23:02:36.865Z,66.00
2022-09-25T23:06:18.645Z,66.00
2022-09-25T23:10:00.423Z,66.10
2022-09-25T23:13:42.187Z,65.80
2022-09-25T23:17:24.064Z,65.90
2022-09-25T23:21:06.048Z,66.10
2022-09-25T23:24:47.832Z,66.30
2022-09-25T23:28:31.717Z,66.30
2022-09-25T23:32:13.635Z,66.30
2022-09-25T23:36:01.179Z,66.70
2022-09-25T23:39:42.992Z,66.60
2022-09-25T23:43:24.783Z,67.50
2022-09-25T23:47:06.684Z,67.00
2022-09-25T23:50:51.282Z,67.20
2022-09-25T23:54:33.430Z,67.60
2022-09-25T23:58:15.288Z,67.70
